White Bear Township, Minnesota
Current Conditions -  °F | °C
As of 10:31 AM on Wednesday 22 Oct 2014 (Local Time) from K21D Reporting Station
Broken Clouds Broken Clouds  
Wind Chill:   Ceiling: 6000
Heat Index:   Visibility: 10mi
Dew Point:   Wind: 17mph
Humidity: 71%   Direction: 170°S
Pressure: 30.22"   Gusts: 22mph
Location:  45.0958°N, 93.0043°W
Report Text: K21D 221531Z AUTO 17015G19KT 10SM BKN060 09/04 A3022 RMK AO2
Loading
Personal Weather Stations






























Interactive Weather Map
Tropical Storm Tracking
New forecast layout! Learn more

10-Day Weather Forecast

Advertisements
Track Severe Weather on mobile